Time;durP1;ratioP1;P1;durP2;ratioP2;P2;SDS_P1;SDS_P2;PMS_P1;PMS_P2;Temp;Humidity;BMP_temperature;BMP_pressure;BME280_temperature;BME280_humidity;BME280_pressure;Samples;Min_cycle;Max_cycle;Signal;HPM_P1;HPM_P2
2023/03/31 00:04:13;;;;;;;11.77;2.85;;;;;;;10.17;73.40;99327.91;10157632;29;20047;-77
2023/03/31 00:09:17;;;;;;;7.60;2.22;;;;;;;10.31;72.79;99326.59;10151213;29;20040;-77
2023/03/31 00:14:20;;;;;;;9.25;2.95;;;;;;;9.82;73.65;99316.03;10156942;29;20040;-77
2023/03/31 00:19:27;;;;;;;6.45;1.98;;;;;;;10.21;72.53;99312.38;10154462;29;20037;-77
2023/03/31 00:24:31;;;;;;;5.90;1.77;;;;;;;9.89;73.18;99298.38;10161579;29;20475;-77
2023/03/31 00:29:34;;;;;;;5.80;2.22;;;;;;;10.20;72.46;99305.31;10163797;29;20048;-76
2023/03/31 00:34:39;;;;;;;6.82;2.00;;;;;;;10.04;72.79;99297.88;10174641;29;20049;-77
2023/03/31 00:39:42;;;;;;;7.75;2.03;;;;;;;10.07;72.54;99287.72;10169887;29;20056;-76
2023/03/31 00:45:22;;;;;;;5.20;1.75;;;;;;;10.09;72.55;99284.88;10194521;29;20060;-77
2023/03/31 00:50:29;;;;;;;5.55;1.45;;;;;;;9.84;73.20;99271.09;10173544;29;20051;-77
2023/03/31 00:55:37;;;;;;;6.57;1.85;;;;;;;9.90;72.57;99262.53;10174045;29;20339;-77
2023/03/31 01:00:41;;;;;;;5.63;1.20;;;;;;;9.70;73.55;99255.50;10167109;29;20132;-75
2023/03/31 01:05:49;;;;;;;4.82;1.10;;;;;;;9.69;73.36;99253.81;10167857;29;20060;-77
2023/03/31 01:10:55;;;;;;;5.22;1.33;;;;;;;9.67;73.62;99240.53;10182942;29;20048;-77
2023/03/31 01:15:58;;;;;;;4.35;1.30;;;;;;;9.51;73.71;99243.84;10176416;29;20041;-77
2023/03/31 01:21:33;;;;;;;5.45;1.75;;;;;;;9.50;73.52;99228.75;10164295;29;20055;-77
2023/03/31 01:26:53;;;;;;;6.32;1.30;;;;;;;9.59;73.18;99231.53;10176314;29;20084;-77
2023/03/31 01:32:44;;;;;;;8.02;1.90;;;;;;;9.62;73.33;99215.16;10165420;29;20712;-77
2023/03/31 01:38:33;;;;;;;6.10;1.77;;;;;;;9.53;73.57;99206.16;10117887;29;20144;-76
2023/03/31 01:43:44;;;;;;;4.05;1.70;;;;;;;9.56;73.14;99197.00;10154711;29;20044;-77
2023/03/31 01:48:54;;;;;;;8.30;1.92;;;;;;;9.48;73.53;99193.19;10168798;29;20468;-76
2023/03/31 01:54:04;;;;;;;5.22;1.60;;;;;;;9.36;73.90;99178.31;10154213;29;20044;-77
2023/03/31 01:59:13;;;;;;;6.65;1.77;;;;;;;9.44;73.68;99174.91;10172123;29;20040;-76
2023/03/31 02:04:21;;;;;;;6.00;1.80;;;;;;;9.43;73.67;99163.31;10176025;29;20047;-77
2023/03/31 02:09:28;;;;;;;6.03;1.70;;;;;;;9.30;74.36;99152.09;10169432;29;20476;-76
2023/03/31 02:14:34;;;;;;;6.95;1.90;;;;;;;9.37;74.18;99141.63;10158294;29;20056;-78
2023/03/31 02:19:40;;;;;;;7.35;2.10;;;;;;;9.38;74.37;99141.47;10182320;29;20068;-77
2023/03/31 02:24:45;;;;;;;8.02;1.85;;;;;;;9.37;74.37;99128.22;10173975;29;20422;-77
2023/03/31 02:29:50;;;;;;;8.82;1.80;;;;;;;9.41;74.49;99116.22;10175149;29;20048;-77
2023/03/31 02:34:54;;;;;;;6.32;1.45;;;;;;;9.45;74.58;99112.25;10185057;29;20076;-77
2023/03/31 02:40:01;;;;;;;14.15;1.90;;;;;;;9.42;74.64;99108.03;10156682;29;20076;-78
2023/03/31 02:45:28;;;;;;;5.28;1.77;;;;;;;9.53;74.24;99100.78;10165989;29;20057;-77
2023/03/31 02:50:41;;;;;;;6.25;1.23;;;;;;;9.56;74.49;99087.09;10160092;29;20461;-77
2023/03/31 02:55:59;;;;;;;5.82;1.17;;;;;;;9.79;73.35;99091.06;10172293;29;20083;-76
2023/03/31 03:01:17;;;;;;;6.63;1.50;;;;;;;9.93;72.69;99084.34;10174270;29;20060;-77
2023/03/31 03:06:36;;;;;;;5.65;1.80;;;;;;;9.98;72.18;99065.94;10157817;29;20042;-78
2023/03/31 03:11:54;;;;;;;8.20;1.48;;;;;;;10.05;72.03;99058.13;10172749;29;20049;-76
2023/03/31 03:17:04;;;;;;;10.05;1.60;;;;;;;10.02;71.84;99039.66;10159505;29;20526;-76
2023/03/31 03:22:07;;;;;;;6.50;1.70;;;;;;;10.12;72.06;99032.38;10159120;29;20187;-77
2023/03/31 03:27:11;;;;;;;5.30;1.63;;;;;;;9.86;73.02;99029.63;10168423;29;20048;-76
2023/03/31 03:32:15;;;;;;;10.80;1.35;;;;;;;9.55;75.30;99034.47;10193297;29;20063;-77
2023/03/31 03:37:18;;;;;;;7.10;1.25;;;;;;;9.47;77.29;99016.47;10156307;29;20043;-78
2023/03/31 03:42:20;;;;;;;6.75;1.20;;;;;;;9.03;80.75;99010.91;10165083;29;20068;-78
2023/03/31 03:47:25;;;;;;;7.90;1.33;;;;;;;9.03;82.02;98984.13;10159887;29;20044;-78
2023/03/31 03:52:28;;;;;;;6.63;1.45;;;;;;;9.17;82.41;98964.03;10159922;29;20036;-78
2023/03/31 03:57:30;;;;;;;6.43;2.17;;;;;;;9.06;83.70;98957.03;10161551;29;20048;-78
2023/03/31 04:02:35;;;;;;;10.40;2.17;;;;;;;9.13;83.54;98936.69;10173978;29;20099;-75
2023/03/31 04:07:38;;;;;;;9.73;2.10;;;;;;;9.02;84.31;98932.41;10188142;29;20485;-79
2023/03/31 04:12:41;;;;;;;7.68;1.90;;;;;;;8.98;84.64;98919.44;10168496;29;20052;-79
2023/03/31 04:17:49;;;;;;;7.78;2.15;;;;;;;8.99;85.10;98905.06;10165187;29;20097;-78
2023/03/31 04:22:53;;;;;;;10.02;2.65;;;;;;;8.97;85.28;98899.88;10161987;29;20119;-78
2023/03/31 04:27:56;;;;;;;8.15;2.35;;;;;;;8.91;85.79;98895.09;10200883;29;20127;-76
2023/03/31 04:33:02;;;;;;;9.25;2.03;;;;;;;8.82;86.46;98894.16;10181365;29;20056;-77
2023/03/31 04:38:05;;;;;;;12.60;2.63;;;;;;;9.00;86.38;98888.00;10183627;29;20135;-78
2023/03/31 04:43:08;;;;;;;8.98;3.55;;;;;;;8.86;87.08;98870.63;10174953;29;20048;-77
2023/03/31 04:48:12;;;;;;;9.95;2.85;;;;;;;8.89;87.29;98864.97;10173173;29;20111;-77
2023/03/31 04:53:15;;;;;;;5.28;2.58;;;;;;;8.91;87.17;98854.09;10166317;29;20401;-79
2023/03/31 04:58:18;;;;;;;9.93;3.42;;;;;;;8.90;87.36;98842.53;10164235;29;20080;-79
2023/03/31 05:03:22;;;;;;;13.20;3.13;;;;;;;8.88;87.28;98843.69;10166800;29;20079;-79
2023/03/31 05:08:26;;;;;;;9.50;2.80;;;;;;;8.83;87.51;98828.91;10163298;29;20068;-79
2023/03/31 05:13:29;;;;;;;15.32;3.15;;;;;;;8.89;87.44;98827.47;10175094;29;20470;-79
2023/03/31 05:18:33;;;;;;;10.85;3.40;;;;;;;8.94;87.19;98824.31;10173139;29;20570;-78
2023/03/31 05:23:36;;;;;;;10.70;2.30;;;;;;;8.97;87.62;98799.94;10185004;29;20056;-78
2023/03/31 05:28:39;;;;;;;9.77;2.08;;;;;;;8.85;87.32;98791.28;10169434;29;20411;-78
2023/03/31 05:33:43;;;;;;;9.30;2.25;;;;;;;8.84;87.62;98793.09;10177764;29;20052;-77
2023/03/31 05:38:46;;;;;;;7.40;2.55;;;;;;;8.92;87.92;98781.66;10168284;29;20068;-78
2023/03/31 05:43:49;;;;;;;9.07;2.75;;;;;;;8.84;88.28;98769.00;10182569;29;20044;-79
2023/03/31 05:48:53;;;;;;;10.05;2.50;;;;;;;8.87;88.24;98785.78;10178395;29;20044;-78
2023/03/31 05:53:56;;;;;;;6.50;1.98;;;;;;;8.88;88.16;98768.69;10170281;29;20076;-78
2023/03/31 05:59:00;;;;;;;9.50;2.80;;;;;;;9.04;87.51;98750.09;10166932;29;20106;-78
2023/03/31 06:04:04;;;;;;;9.50;3.28;;;;;;;9.06;87.25;98748.97;10169702;29;20040;-78
2023/03/31 06:09:06;;;;;;;14.40;2.17;;;;;;;9.08;87.37;98730.06;10157953;29;20040;-78
2023/03/31 06:14:09;;;;;;;5.53;1.73;;;;;;;8.99;86.93;98737.16;10169023;29;20571;-78
2023/03/31 06:19:14;;;;;;;7.82;2.35;;;;;;;9.06;86.79;98732.88;10175589;29;20047;-77
2023/03/31 06:24:17;;;;;;;5.80;1.55;;;;;;;8.98;86.38;98714.06;10197605;29;20052;-78
2023/03/31 06:29:20;;;;;;;6.80;1.67;;;;;;;9.13;86.15;98706.31;10173613;29;20044;-77
2023/03/31 06:34:24;;;;;;;6.40;2.00;;;;;;;9.24;85.70;98692.69;10167283;29;20111;-78
2023/03/31 06:39:27;;;;;;;9.30;2.00;;;;;;;9.28;85.43;98686.00;10170800;29;20036;-78
2023/03/31 06:44:30;;;;;;;6.03;1.90;;;;;;;9.33;85.39;98669.47;10169270;29;20484;-78
2023/03/31 06:49:34;;;;;;;8.63;1.77;;;;;;;9.23;84.55;98645.44;10170153;29;20095;-78
2023/03/31 06:54:37;;;;;;;4.30;1.50;;;;;;;9.24;84.35;98646.28;10170802;29;20071;-78
2023/03/31 06:59:40;;;;;;;8.20;2.03;;;;;;;9.31;83.50;98643.81;10173620;29;20048;-77
2023/03/31 07:04:44;;;;;;;12.15;2.83;;;;;;;9.46;82.27;98648.44;10172725;29;20044;-78
2023/03/31 07:09:47;;;;;;;12.38;3.80;;;;;;;9.48;81.84;98645.59;10170575;29;20078;-79
2023/03/31 07:14:50;;;;;;;13.02;2.65;;;;;;;9.25;82.48;98623.88;10166996;29;20469;-79
2023/03/31 07:19:54;;;;;;;10.57;2.20;;;;;;;9.08;83.27;98614.91;10190277;29;20044;-78
2023/03/31 07:24:57;;;;;;;7.72;2.08;;;;;;;9.24;83.46;98611.47;10186007;29;20084;-79
2023/03/31 07:30:00;;;;;;;7.15;1.95;;;;;;;9.41;83.12;98605.19;10170582;29;20044;-79
2023/03/31 07:35:05;;;;;;;8.02;1.70;;;;;;;9.51;82.87;98592.50;10163817;29;20052;-78
2023/03/31 07:40:10;;;;;;;6.13;2.63;;;;;;;9.34;81.83;98589.91;10178862;29;20052;-79
2023/03/31 07:45:13;;;;;;;5.68;1.95;;;;;;;9.54;81.38;98577.94;10160471;29;20071;-78
2023/03/31 07:50:18;;;;;;;9.68;3.63;;;;;;;9.83;80.81;98569.50;10166083;29;20080;-79
2023/03/31 07:55:25;;;;;;;4.28;1.33;;;;;;;9.79;79.56;98556.56;10153566;29;20579;-77
2023/03/31 08:00:28;;;;;;;12.10;4.32;;;;;;;9.58;79.40;98565.06;10169514;29;20412;-78
2023/03/31 08:05:32;;;;;;;15.98;3.00;;;;;;;9.76;78.38;98555.06;10169097;29;20515;-77
2023/03/31 08:10:35;;;;;;;3.50;1.13;;;;;;;9.79;78.28;98551.22;10168190;29;20044;-78
2023/03/31 08:15:38;;;;;;;16.35;3.28;;;;;;;9.84;78.17;98552.41;10171286;29;20051;-78
2023/03/31 08:20:42;;;;;;;11.82;2.58;;;;;;;9.85;78.63;98538.00;10171887;29;20040;-78
2023/03/31 08:25:44;;;;;;;12.27;3.75;;;;;;;9.40;79.19;98557.13;10185991;29;20048;-77
2023/03/31 08:30:47;;;;;;;4.57;1.90;;;;;;;9.51;80.71;98530.03;10168505;29;20078;-77
2023/03/31 08:35:51;;;;;;;2.35;1.52;;;;;;;9.15;83.54;98537.41;10169893;29;20040;-78
2023/03/31 08:40:59;;;;;;;7.80;2.35;;;;;;;8.99;84.57;98547.03;10164228;29;20040;-77
2023/03/31 08:46:04;;;;;;;7.25;1.92;;;;;;;8.99;85.79;98541.69;10177781;29;20112;-76
2023/03/31 08:51:16;;;;;;;8.10;2.55;;;;;;;9.00;86.13;98543.38;10169942;29;20048;-78
2023/03/31 08:56:22;;;;;;;11.40;3.10;;;;;;;9.24;86.63;98536.44;10180334;29;20048;-79
2023/03/31 09:01:36;;;;;;;7.75;2.15;;;;;;;8.83;87.80;98526.38;10189950;29;20473;-79
2023/03/31 09:07:05;;;;;;;1.33;0.90;;;;;;;8.59;88.11;98542.28;10181514;29;20522;-79
2023/03/31 09:12:15;;;;;;;4.22;1.10;;;;;;;8.72;88.47;98534.69;10180688;29;20115;-79
2023/03/31 09:17:23;;;;;;;5.43;1.58;;;;;;;8.70;88.55;98522.47;10185644;29;20503;-79
2023/03/31 09:22:31;;;;;;;2.40;1.00;;;;;;;8.31;90.23;98512.94;10199379;29;20070;-78
2023/03/31 09:27:36;;;;;;;4.00;0.90;;;;;;;8.33;90.15;98507.44;10175995;29;20048;-77
2023/03/31 09:32:39;;;;;;;2.85;0.77;;;;;;;8.30;90.02;98505.06;10187146;29;20415;-78
2023/03/31 09:37:44;;;;;;;6.15;0.90;;;;;;;8.68;88.40;98521.75;10176517;29;20074;-78
2023/03/31 09:42:51;;;;;;;2.85;1.00;;;;;;;8.38;90.83;98507.81;10176215;29;20044;-78
2023/03/31 09:47:56;;;;;;;5.43;1.38;;;;;;;8.65;89.79;98503.34;10176407;29;20070;-79
2023/03/31 09:53:04;;;;;;;2.78;0.88;;;;;;;8.65;89.63;98503.34;10176042;29;20107;-79
2023/03/31 09:58:11;;;;;;;2.40;1.23;;;;;;;8.82;90.36;98499.75;10177767;29;20047;-79
2023/03/31 10:03:14;;;;;;;6.03;1.17;;;;;;;8.77;88.69;98494.03;10189586;29;20052;-79
2023/03/31 10:08:26;;;;;;;3.22;1.42;;;;;;;8.31;90.42;98490.69;10181405;29;20059;-78
2023/03/31 10:13:35;;;;;;;5.65;1.70;;;;;;;8.60;89.36;98498.47;10199006;29;20053;-78
2023/03/31 10:18:40;;;;;;;3.78;1.45;;;;;;;8.71;88.68;98497.34;10184561;29;20067;-79
2023/03/31 10:23:47;;;;;;;4.93;1.02;;;;;;;9.02;88.41;98500.34;10181945;29;20044;-79
2023/03/31 10:28:54;;;;;;;5.15;0.90;;;;;;;9.05;88.73;98506.25;10187956;29;20055;-80
2023/03/31 10:33:58;;;;;;;3.65;1.20;;;;;;;9.35;88.45;98493.31;10182869;29;20052;-80
2023/03/31 10:39:06;;;;;;;2.67;1.15;;;;;;;9.55;87.90;98476.94;10180805;29;20079;-80
2023/03/31 10:44:31;;;;;;;4.47;1.58;;;;;;;9.79;87.80;98463.59;10181965;29;20492;-79
2023/03/31 10:49:39;;;;;;;2.67;1.10;;;;;;;9.78;87.12;98458.38;10172943;29;20040;-78
2023/03/31 10:54:49;;;;;;;3.70;1.17;;;;;;;10.00;86.27;98460.44;10173693;29;20075;-79
2023/03/31 11:00:07;;;;;;;3.53;1.00;;;;;;;10.35;85.94;98451.19;10176943;29;20479;-78
2023/03/31 11:05:15;;;;;;;3.83;1.20;;;;;;;10.29;84.31;98446.50;10177333;29;20575;-78
2023/03/31 11:10:35;;;;;;;5.78;1.63;;;;;;;10.34;83.79;98440.66;10172801;29;20041;-78
2023/03/31 11:15:42;;;;;;;5.13;1.67;;;;;;;10.50;82.53;98440.59;10169579;29;20122;-77
2023/03/31 11:20:56;;;;;;;5.35;1.38;;;;;;;10.74;82.20;98428.94;10174323;29;20048;-78
2023/03/31 11:26:05;;;;;;;4.45;1.55;;;;;;;10.59;79.75;98420.78;10170205;29;20136;-78
2023/03/31 11:31:27;;;;;;;6.63;1.70;;;;;;;10.46;79.13;98416.97;10172753;29;20070;-78
2023/03/31 11:36:52;;;;;;;5.75;1.58;;;;;;;10.61;80.46;98418.78;10172151;29;20048;-78
2023/03/31 11:42:00;;;;;;;6.10;1.80;;;;;;;10.68;80.87;98407.34;10172596;29;20048;-79
2023/03/31 11:47:07;;;;;;;4.13;1.70;;;;;;;10.50;80.07;98391.44;10172050;29;20054;-78
2023/03/31 11:52:16;;;;;;;7.07;2.28;;;;;;;10.68;80.38;98396.59;10172401;29;20128;-78
2023/03/31 11:57:25;;;;;;;6.70;2.42;;;;;;;10.93;79.62;98384.72;10171614;29;20118;-78
2023/03/31 12:02:38;;;;;;;5.05;2.15;;;;;;;11.33;80.22;98387.41;10164782;29;20044;-78
2023/03/31 12:07:48;;;;;;;4.60;1.98;;;;;;;11.46;78.54;98379.56;10185609;29;20048;-78
2023/03/31 12:12:56;;;;;;;8.02;2.08;;;;;;;11.46;77.79;98368.81;10177933;29;20064;-78
2023/03/31 12:18:02;;;;;;;5.50;2.65;;;;;;;11.51;79.29;98361.06;10185251;29;20052;-78
2023/03/31 12:23:13;;;;;;;9.80;2.15;;;;;;;10.64;81.03;98361.22;10179093;29;20052;-79
2023/03/31 12:28:19;;;;;;;6.30;1.85;;;;;;;10.54;82.10;98358.72;10178678;29;20496;-78
2023/03/31 12:33:26;;;;;;;10.73;2.60;;;;;;;11.13;80.91;98339.47;10193777;29;20040;-79
2023/03/31 12:38:42;;;;;;;9.02;2.50;;;;;;;11.06;78.67;98342.03;10179132;29;20168;-78
2023/03/31 12:44:05;;;;;;;6.10;2.47;;;;;;;11.71;76.85;98335.38;10178269;29;20391;-78
2023/03/31 12:49:27;;;;;;;11.85;3.08;;;;;;;11.85;74.35;98332.91;10172870;29;20048;-77
2023/03/31 12:54:57;;;;;;;7.68;2.92;;;;;;;12.44;73.34;98330.28;10185519;29;20071;-79
2023/03/31 13:00:20;;;;;;;5.22;2.25;;;;;;;12.12;71.14;98340.38;10173252;29;20040;-79
2023/03/31 13:05:49;;;;;;;4.68;2.05;;;;;;;12.30;72.85;98321.19;10171567;29;20044;-78
2023/03/31 13:10:57;;;;;;;2.03;1.05;;;;;;;12.23;68.89;98322.06;10175165;29;20032;-78
2023/03/31 13:16:02;;;;;;;6.18;1.20;;;;;;;12.19;67.71;98310.00;10163366;29;20044;-78
2023/03/31 13:21:06;;;;;;;2.28;1.05;;;;;;;11.62;68.74;98311.41;10178322;29;20499;-78
2023/03/31 13:26:36;;;;;;;3.08;1.40;;;;;;;11.19;70.37;98311.06;10179217;29;20051;-78
2023/03/31 13:32:16;;;;;;;5.63;1.60;;;;;;;10.79;71.64;98337.97;10174830;29;20048;-78
2023/03/31 13:37:43;;;;;;;3.88;1.17;;;;;;;10.37;75.51;98349.06;10171183;29;20048;-78
2023/03/31 13:43:13;;;;;;;3.67;1.15;;;;;;;9.60;80.46;98349.47;10169060;29;20511;-78
2023/03/31 13:48:30;;;;;;;10.07;1.70;;;;;;;9.73;81.11;98341.75;10156885;29;20060;-79
2023/03/31 13:53:54;;;;;;;10.18;2.38;;;;;;;10.22;81.81;98343.53;10165351;29;20075;-78
2023/03/31 13:59:30;;;;;;;8.82;2.42;;;;;;;10.61;81.75;98342.75;10169149;29;20568;-78
2023/03/31 14:05:04;;;;;;;8.88;2.40;;;;;;;11.40;79.32;98329.22;10167806;29;20529;-78
2023/03/31 14:10:22;;;;;;;7.05;2.42;;;;;;;11.22;77.76;98346.50;10173740;29;20124;-79
2023/03/31 14:15:25;;;;;;;3.28;1.33;;;;;;;11.27;76.22;98338.75;10176087;29;20116;-78
2023/03/31 14:20:35;;;;;;;4.90;1.55;;;;;;;11.29;75.67;98338.53;10171266;29;20111;-79
2023/03/31 14:25:49;;;;;;;8.13;1.55;;;;;;;11.28;75.97;98337.72;10168790;29;20477;-78
2023/03/31 14:31:03;;;;;;;5.00;1.05;;;;;;;11.53;73.85;98337.53;10172339;29;20480;-78
2023/03/31 14:36:14;;;;;;;6.05;1.23;;;;;;;11.06;74.38;98325.06;10173946;29;20092;-78
2023/03/31 14:41:28;;;;;;;2.70;1.10;;;;;;;11.12;73.22;98337.81;10171682;29;20578;-78
2023/03/31 14:46:36;;;;;;;3.47;1.45;;;;;;;11.04;74.38;98327.91;10172246;29;20039;-78
2023/03/31 14:51:45;;;;;;;3.42;1.20;;;;;;;10.86;74.13;98326.50;10165464;29;20048;-78
2023/03/31 14:56:53;;;;;;;6.85;1.73;;;;;;;11.14;75.15;98330.41;10169431;29;20036;-77
2023/03/31 15:01:59;;;;;;;6.97;1.30;;;;;;;10.97;74.48;98329.66;10187385;29;20408;-78
2023/03/31 15:07:04;;;;;;;3.83;1.60;;;;;;;11.32;74.36;98318.53;10163657;29;20101;-78
2023/03/31 15:12:13;;;;;;;9.95;1.85;;;;;;;11.23;73.81;98309.69;10169725;29;20119;-78
2023/03/31 15:17:21;;;;;;;5.30;1.70;;;;;;;11.18;74.28;98312.91;10163701;29;20116;-78
2023/03/31 15:22:26;;;;;;;3.70;1.52;;;;;;;11.13;74.98;98315.28;10167884;29;20099;-77
2023/03/31 15:27:34;;;;;;;5.10;1.55;;;;;;;10.74;74.58;98310.81;10160668;29;20115;-77
2023/03/31 15:32:40;;;;;;;6.10;1.80;;;;;;;10.84;74.67;98314.13;10162410;29;20040;-78
2023/03/31 15:37:46;;;;;;;5.93;1.63;;;;;;;10.84;74.56;98305.22;10162714;29;20435;-78
2023/03/31 15:42:54;;;;;;;2.92;1.20;;;;;;;10.96;74.84;98298.41;10170405;29;20128;-79
2023/03/31 15:48:21;;;;;;;8.50;1.40;;;;;;;11.31;74.48;98292.69;10161575;29;20044;-77
2023/03/31 15:53:31;;;;;;;6.13;1.45;;;;;;;11.19;73.85;98292.25;10164162;29;20075;-77
2023/03/31 15:58:55;;;;;;;7.10;1.52;;;;;;;11.33;74.20;98288.81;10148019;29;20064;-76
2023/03/31 16:03:59;;;;;;;8.38;1.52;;;;;;;11.42;74.78;98281.50;10161786;29;20040;-77
2023/03/31 16:09:06;;;;;;;10.55;2.05;;;;;;;11.39;74.33;98273.81;10177342;29;20075;-77
2023/03/31 16:14:19;;;;;;;5.05;1.63;;;;;;;11.28;74.55;98273.22;10152010;29;20099;-77
2023/03/31 16:19:23;;;;;;;;;;;;;;;11.41;76.32;98269.06;10165277;29;20071;-77
2023/03/31 16:24:30;;;;;;;5.70;1.70;;;;;;;11.11;74.51;98270.78;10160666;29;20509;-77
2023/03/31 16:29:36;;;;;;;5.15;1.58;;;;;;;11.18;74.79;98271.78;10163805;29;20040;-76
2023/03/31 16:34:57;;;;;;;5.75;1.90;;;;;;;10.98;74.26;98272.22;10152192;29;20033;-76
2023/03/31 16:40:00;;;;;;;5.25;2.10;;;;;;;11.11;74.36;98266.28;10154170;29;20594;-77
2023/03/31 16:45:06;;;;;;;6.82;2.30;;;;;;;11.19;75.84;98260.88;10165058;29;20452;-76
2023/03/31 16:50:13;;;;;;;6.43;1.80;;;;;;;11.17;76.94;98264.75;10158394;29;20591;-76
2023/03/31 16:55:17;;;;;;;4.97;1.75;;;;;;;11.06;75.64;98252.53;10154787;29;20047;-77
2023/03/31 17:00:21;;;;;;;5.03;1.90;;;;;;;10.98;76.12;98256.09;10157519;29;20044;-77
2023/03/31 17:05:25;;;;;;;6.03;2.30;;;;;;;10.94;76.35;98259.31;10159871;29;20457;-77
2023/03/31 17:10:27;;;;;;;6.80;2.13;;;;;;;10.88;76.08;98278.84;10173878;29;20055;-77
2023/03/31 17:15:33;;;;;;;;;;;;;;;10.48;78.03;98299.53;10170901;29;20384;-77
2023/03/31 17:20:36;;;;;;;8.60;2.38;;;;;;;9.86;82.67;98301.06;10166215;29;19930;-78
2023/03/31 17:25:39;;;;;;;5.55;2.00;;;;;;;9.78;84.80;98318.97;10178282;29;20044;-78
2023/03/31 17:30:46;;;;;;;;;;;;;;;8.68;90.39;98313.00;10183104;29;20040;-80
2023/03/31 17:35:49;;;;;;;5.32;1.65;;;;;;;9.01;88.01;98287.13;10184749;29;19935;-78
2023/03/31 17:40:53;;;;;;;6.47;2.10;;;;;;;9.16;88.91;98285.50;10182793;29;20075;-78
2023/03/31 17:46:03;;;;;;;5.72;2.47;;;;;;;9.39;87.85;98279.47;10176824;29;20469;-77
2023/03/31 17:51:06;;;;;;;5.75;1.90;;;;;;;9.36;87.37;98290.53;10177352;29;20044;-78
2023/03/31 17:56:09;;;;;;;6.88;1.85;;;;;;;9.33;86.94;98294.38;10183160;29;20044;-78
2023/03/31 18:01:13;;;;;;;;;;;;;;;9.34;85.53;98290.69;10176516;29;20036;-77
2023/03/31 18:06:16;;;;;;;6.40;1.40;;;;;;;9.27;83.98;98295.88;10175577;29;20363;-77
2023/03/31 18:11:19;;;;;;;4.22;1.70;;;;;;;9.46;83.01;98300.06;10175959;29;20393;-78
2023/03/31 18:16:23;;;;;;;2.15;1.05;;;;;;;9.14;82.05;98294.69;10174633;29;20047;-77
2023/03/31 18:21:26;;;;;;;2.17;0.85;;;;;;;9.33;81.10;98297.06;10176515;29;20123;-77
2023/03/31 18:26:29;;;;;;;6.95;1.55;;;;;;;9.56;80.13;98299.06;10183513;29;20071;-77
2023/03/31 18:31:33;;;;;;;6.68;0.82;;;;;;;9.41;79.77;98299.72;10175237;29;20044;-77
2023/03/31 18:36:36;;;;;;;7.45;1.23;;;;;;;9.50;79.14;98300.56;10166941;29;20056;-77
2023/03/31 18:41:44;;;;;;;5.45;0.98;;;;;;;9.52;79.25;98298.56;10193630;29;20510;-77
2023/03/31 18:46:48;;;;;;;3.83;1.38;;;;;;;9.52;80.34;98298.56;10167900;29;20095;-77
2023/03/31 18:51:52;;;;;;;3.00;1.23;;;;;;;9.31;81.26;98304.41;10189673;29;20060;-77
2023/03/31 18:56:55;;;;;;;3.08;0.90;;;;;;;9.13;81.38;98311.75;10173668;29;20071;-77
2023/03/31 19:01:59;;;;;;;3.38;0.90;;;;;;;9.10;80.86;98309.41;10172451;29;20503;-78
2023/03/31 19:07:02;;;;;;;3.33;1.40;;;;;;;9.18;80.51;98312.09;10173681;29;20044;-77
2023/03/31 19:12:06;;;;;;;2.17;1.10;;;;;;;9.49;79.25;98314.97;10173860;29;20515;-77
2023/03/31 19:17:11;;;;;;;4.25;1.17;;;;;;;9.31;79.71;98317.81;10173372;29;20119;-77
2023/03/31 19:22:14;;;;;;;11.07;1.38;;;;;;;9.22;79.76;98310.78;10181107;29;20040;-78
2023/03/31 19:27:17;;;;;;;6.60;1.23;;;;;;;9.35;79.71;98318.31;10172596;29;20063;-78
2023/03/31 19:32:21;;;;;;;4.65;1.13;;;;;;;9.25;80.48;98318.47;10172600;29;20067;-78
2023/03/31 19:37:24;;;;;;;3.28;1.20;;;;;;;9.48;80.97;98316.78;10172188;29;20070;-78
2023/03/31 19:42:27;;;;;;;4.05;1.15;;;;;;;9.25;81.36;98315.78;10172321;29;20047;-78
2023/03/31 19:47:31;;;;;;;4.28;1.50;;;;;;;9.37;81.31;98311.78;10171880;29;20118;-78
2023/03/31 19:52:35;;;;;;;4.05;1.83;;;;;;;9.38;81.48;98302.75;10190038;29;20484;-77
2023/03/31 19:57:38;;;;;;;5.15;1.42;;;;;;;9.35;81.38;98310.25;10171818;29;20457;-78
2023/03/31 20:02:42;;;;;;;4.50;1.58;;;;;;;9.29;81.60;98299.19;10172371;29;20048;-78
2023/03/31 20:07:45;;;;;;;4.53;1.60;;;;;;;9.17;81.71;98291.69;10174438;29;20508;-78
2023/03/31 20:12:50;;;;;;;4.10;1.20;;;;;;;9.06;81.99;98296.34;10166785;29;20076;-79
2023/03/31 20:17:55;;;;;;;3.45;1.40;;;;;;;8.96;81.70;98298.34;10166326;29;20107;-77
2023/03/31 20:22:59;;;;;;;3.42;1.40;;;;;;;9.00;82.44;98298.88;10186142;29;20480;-78
2023/03/31 20:28:01;;;;;;;5.20;1.25;;;;;;;9.02;83.12;98303.06;10172199;29;20433;-79
2023/03/31 20:33:06;;;;;;;3.63;1.77;;;;;;;9.13;83.75;98295.69;10160296;29;20067;-79
2023/03/31 20:38:09;;;;;;;4.22;1.70;;;;;;;9.01;84.46;98296.00;10159609;29;20048;-79
2023/03/31 20:43:11;;;;;;;5.32;2.00;;;;;;;8.95;85.54;98302.03;10166577;29;20067;-79
2023/03/31 20:48:16;;;;;;;6.20;2.13;;;;;;;8.72;85.69;98299.16;10187646;29;20099;-79
2023/03/31 20:53:19;;;;;;;7.22;1.80;;;;;;;8.88;85.77;98300.16;10162794;29;20044;-78
2023/03/31 20:58:22;;;;;;;4.00;1.90;;;;;;;9.03;85.16;98294.00;10175008;29;20504;-78
2023/03/31 21:03:26;;;;;;;4.90;2.10;;;;;;;8.87;85.68;98302.00;10161210;29;20071;-79
2023/03/31 21:08:29;;;;;;;4.57;1.88;;;;;;;8.96;85.21;98295.66;10168709;29;20040;-79
2023/03/31 21:13:32;;;;;;;6.00;2.70;;;;;;;8.99;84.98;98295.31;10168932;29;20049;-78
2023/03/31 21:18:36;;;;;;;4.07;2.05;;;;;;;8.90;85.36;98296.31;10158601;29;20124;-79
2023/03/31 21:23:39;;;;;;;4.90;2.40;;;;;;;8.87;85.84;98299.34;10170580;29;20037;-80
2023/03/31 21:28:43;;;;;;;7.45;2.40;;;;;;;8.97;85.77;98293.84;10166314;29;20071;-79
2023/03/31 21:33:47;;;;;;;8.88;2.78;;;;;;;8.79;86.43;98300.16;10166154;29;20048;-80
2023/03/31 21:38:52;;;;;;;8.32;2.97;;;;;;;8.89;86.38;98291.97;10168923;29;20052;-78
2023/03/31 21:43:57;;;;;;;5.70;2.45;;;;;;;8.72;87.38;98292.94;10189486;29;20139;-80
2023/03/31 21:49:04;;;;;;;4.43;2.88;;;;;;;8.38;88.90;98297.31;10170497;29;20049;-79
2023/03/31 21:54:07;;;;;;;7.10;3.42;;;;;;;8.55;88.12;98298.22;10168427;29;20048;-79
2023/03/31 21:59:10;;;;;;;7.88;2.80;;;;;;;8.60;88.23;98287.88;10165742;29;20076;-79
2023/03/31 22:04:14;;;;;;;4.88;2.70;;;;;;;8.69;87.96;98296.75;10165880;29;20500;-79
2023/03/31 22:09:17;;;;;;;6.60;3.03;;;;;;;8.52;88.61;98298.56;10163872;29;20439;-77
2023/03/31 22:14:20;;;;;;;5.70;2.50;;;;;;;8.40;87.98;98289.97;10159680;29;20408;-78
2023/03/31 22:19:24;;;;;;;2.65;1.67;;;;;;;8.24;87.99;98300.59;10170724;29;20044;-80
2023/03/31 22:24:27;;;;;;;3.55;2.38;;;;;;;8.66;87.50;98297.09;10169687;29;20493;-79
2023/03/31 22:29:30;;;;;;;7.18;2.35;;;;;;;8.59;87.61;98296.91;10170919;29;20044;-78
2023/03/31 22:34:34;;;;;;;7.53;2.20;;;;;;;8.70;87.59;98295.78;10168318;29;20465;-79
2023/03/31 22:39:37;;;;;;;6.70;1.75;;;;;;;8.44;88.17;98293.16;10152886;29;20385;-79
2023/03/31 22:44:40;;;;;;;6.50;1.80;;;;;;;8.41;88.57;98290.78;10166531;29;20041;-79
2023/03/31 22:49:44;;;;;;;6.75;1.60;;;;;;;8.34;88.39;98303.16;10161992;29;20052;-79
2023/03/31 22:54:47;;;;;;;3.30;1.42;;;;;;;8.16;89.71;98317.44;10160825;29;20043;-79
2023/03/31 22:59:50;;;;;;;8.70;1.23;;;;;;;8.10;89.79;98311.91;10190579;29;20075;-79
2023/03/31 23:04:54;;;;;;;5.40;1.80;;;;;;;8.29;89.40;98313.50;10177646;29;20048;-80
2023/03/31 23:09:57;;;;;;;7.38;1.60;;;;;;;8.10;89.84;98310.06;10162728;29;20519;-80
2023/03/31 23:15:00;;;;;;;3.47;1.83;;;;;;;8.11;90.28;98309.03;10182438;29;20492;-80
2023/03/31 23:20:06;;;;;;;2.67;2.13;;;;;;;8.19;90.25;98313.59;10166480;29;20055;-79
2023/03/31 23:25:09;;;;;;;7.45;2.25;;;;;;;7.95;90.68;98308.94;10179592;29;20055;-79
2023/03/31 23:30:13;;;;;;;4.35;1.65;;;;;;;7.81;92.64;98307.69;10170311;29;20056;-79
2023/03/31 23:35:18;;;;;;;4.45;1.83;;;;;;;7.81;91.48;98320.22;10154162;29;20559;-79
2023/03/31 23:40:20;;;;;;;7.65;2.45;;;;;;;8.40;89.10;98307.84;10178271;29;20051;-78
2023/03/31 23:45:23;;;;;;;3.42;2.55;;;;;;;8.03;90.42;98313.50;10203818;29;20054;-79
2023/03/31 23:50:28;;;;;;;2.88;1.83;;;;;;;8.32;89.08;98299.78;10183297;29;20058;-78
2023/03/31 23:55:31;;;;;;;5.18;2.20;;;;;;;8.23;89.12;98306.09;10192924;29;20051;-79
